sensor_id;sensor_type;location;lat;lon;timestamp;P1;durP1;ratioP1;P2;durP2;ratioP2
77748;SDS011;66938;52.084;5.228;2023-06-04T00:00:48;3.8;;;1.6;;
77748;SDS011;66938;52.084;5.228;2023-06-04T00:04:01;3.7;;;1.6;;
77748;SDS011;66938;52.084;5.228;2023-06-04T00:05:37;2.8;;;1.6;;
77748;SDS011;66938;52.084;5.228;2023-06-04T00:07:13;3.7;;;1.8;;
77748;SDS011;66938;52.084;5.228;2023-06-04T00:08:49;4.41;;;1.6;;
77748;SDS011;66938;52.084;5.228;2023-06-04T00:12:02;3.4;;;1.8;;
77748;SDS011;66938;52.084;5.228;2023-06-04T00:13:39;3.1;;;1.8;;
77748;SDS011;66938;52.084;5.228;2023-06-04T00:15:15;3.1;;;1.7;;
77748;SDS011;66938;52.084;5.228;2023-06-04T00:18:27;3.3;;;1.7;;
77748;SDS011;66938;52.084;5.228;2023-06-04T00:20:04;3.3;;;1.7;;
77748;SDS011;66938;52.084;5.228;2023-06-04T00:21:41;3.9;;;1.7;;
77748;SDS011;66938;52.084;5.228;2023-06-04T00:24:54;3.4;;;1.6;;
77748;SDS011;66938;52.084;5.228;2023-06-04T00:26:30;3.0;;;1.5;;
77748;SDS011;66938;52.084;5.228;2023-06-04T00:28:06;4.1;;;1.8;;
77748;SDS011;66938;52.084;5.228;2023-06-04T00:31:19;3.7;;;1.9;;
77748;SDS011;66938;52.084;5.228;2023-06-04T00:32:56;3.9;;;1.6;;
77748;SDS011;66938;52.084;5.228;2023-06-04T00:34:32;3.9;;;1.9;;
77748;SDS011;66938;52.084;5.228;2023-06-04T00:36:08;3.8;;;1.7;;
77748;SDS011;66938;52.084;5.228;2023-06-04T00:39:20;3.3;;;1.9;;
77748;SDS011;66938;52.084;5.228;2023-06-04T00:40:56;3.2;;;1.7;;
77748;SDS011;66938;52.084;5.228;2023-06-04T00:42:33;2.5;;;1.6;;
77748;SDS011;66938;52.084;5.228;2023-06-04T00:45:45;3.0;;;1.6;;
77748;SDS011;66938;52.084;5.228;2023-06-04T00:47:21;2.31;;;1.5;;
77748;SDS011;66938;52.084;5.228;2023-06-04T00:48:57;4.0;;;1.9;;
77748;SDS011;66938;52.084;5.228;2023-06-04T00:52:11;3.4;;;1.7;;
77748;SDS011;66938;52.084;5.228;2023-06-04T00:53:50;3.8;;;1.8;;
77748;SDS011;66938;52.084;5.228;2023-06-04T00:55:27;3.5;;;1.9;;
77748;SDS011;66938;52.084;5.228;2023-06-04T00:57:04;2.7;;;1.7;;
77748;SDS011;66938;52.084;5.228;2023-06-04T01:00:17;3.3;;;1.8;;
77748;SDS011;66938;52.084;5.228;2023-06-04T01:01:56;4.0;;;1.7;;
77748;SDS011;66938;52.084;5.228;2023-06-04T01:03:38;3.5;;;1.8;;
77748;SDS011;66938;52.084;5.228;2023-06-04T01:05:21;3.4;;;2.0;;
77748;SDS011;66938;52.084;5.228;2023-06-04T01:08:44;3.3;;;1.7;;
77748;SDS011;66938;52.084;5.228;2023-06-04T01:10:20;3.7;;;1.9;;
77748;SDS011;66938;52.084;5.228;2023-06-04T01:11:56;3.7;;;1.9;;
77748;SDS011;66938;52.084;5.228;2023-06-04T01:15:09;3.3;;;2.0;;
77748;SDS011;66938;52.084;5.228;2023-06-04T01:16:49;3.8;;;1.8;;
77748;SDS011;66938;52.084;5.228;2023-06-04T01:18:31;3.7;;;2.0;;
77748;SDS011;66938;52.084;5.228;2023-06-04T01:20:15;3.7;;;2.0;;
77748;SDS011;66938;52.084;5.228;2023-06-04T01:22:07;2.4;;;1.8;;
77748;SDS011;66938;52.084;5.228;2023-06-04T01:25:32;3.8;;;2.1;;
77748;SDS011;66938;52.084;5.228;2023-06-04T01:27:10;3.6;;;2.21;;
77748;SDS011;66938;52.084;5.228;2023-06-04T01:28:46;5.2;;;2.1;;
77748;SDS011;66938;52.084;5.228;2023-06-04T01:32:02;3.9;;;2.1;;
77748;SDS011;66938;52.084;5.228;2023-06-04T01:33:40;4.1;;;2.1;;
77748;SDS011;66938;52.084;5.228;2023-06-04T01:35:16;3.6;;;2.21;;
77748;SDS011;66938;52.084;5.228;2023-06-04T01:36:53;3.7;;;2.1;;
77748;SDS011;66938;52.084;5.228;2023-06-04T01:40:05;4.1;;;2.0;;
77748;SDS011;66938;52.084;5.228;2023-06-04T01:41:43;4.3;;;2.21;;
77748;SDS011;66938;52.084;5.228;2023-06-04T01:43:20;3.7;;;2.1;;
77748;SDS011;66938;52.084;5.228;2023-06-04T01:46:32;3.9;;;2.1;;
77748;SDS011;66938;52.084;5.228;2023-06-04T01:48:09;4.2;;;2.21;;
77748;SDS011;66938;52.084;5.228;2023-06-04T01:49:45;3.5;;;2.1;;
77748;SDS011;66938;52.084;5.228;2023-06-04T01:51:22;4.2;;;2.21;;
77748;SDS011;66938;52.084;5.228;2023-06-04T01:54:35;3.6;;;2.4;;
77748;SDS011;66938;52.084;5.228;2023-06-04T01:56:11;3.5;;;2.31;;
77748;SDS011;66938;52.084;5.228;2023-06-04T01:57:47;3.8;;;2.1;;
77748;SDS011;66938;52.084;5.228;2023-06-04T02:01:00;3.9;;;2.31;;
77748;SDS011;66938;52.084;5.228;2023-06-04T02:02:37;4.2;;;2.21;;
77748;SDS011;66938;52.084;5.228;2023-06-04T02:04:14;3.5;;;2.0;;
77748;SDS011;66938;52.084;5.228;2023-06-04T02:07:26;3.4;;;2.21;;
77748;SDS011;66938;52.084;5.228;2023-06-04T02:09:03;4.61;;;2.5;;
77748;SDS011;66938;52.084;5.228;2023-06-04T02:10:39;4.1;;;2.31;;
77748;SDS011;66938;52.084;5.228;2023-06-04T02:12:15;4.0;;;2.21;;
77748;SDS011;66938;52.084;5.228;2023-06-04T02:15:29;3.9;;;2.4;;
77748;SDS011;66938;52.084;5.228;2023-06-04T02:17:06;4.2;;;2.21;;
77748;SDS011;66938;52.084;5.228;2023-06-04T02:18:43;4.3;;;2.1;;
77748;SDS011;66938;52.084;5.228;2023-06-04T02:21:56;3.8;;;2.21;;
77748;SDS011;66938;52.084;5.228;2023-06-04T02:25:10;4.2;;;2.1;;
77748;SDS011;66938;52.084;5.228;2023-06-04T02:28:22;3.9;;;2.1;;
77748;SDS011;66938;52.084;5.228;2023-06-04T02:29:58;3.3;;;2.31;;
77748;SDS011;66938;52.084;5.228;2023-06-04T02:31:35;3.1;;;2.0;;
77748;SDS011;66938;52.084;5.228;2023-06-04T02:33:11;3.3;;;2.31;;
77748;SDS011;66938;52.084;5.228;2023-06-04T02:36:23;3.3;;;2.21;;
77748;SDS011;66938;52.084;5.228;2023-06-04T02:37:59;3.4;;;2.1;;
77748;SDS011;66938;52.084;5.228;2023-06-04T02:39:35;3.8;;;2.4;;
77748;SDS011;66938;52.084;5.228;2023-06-04T02:42:47;3.4;;;2.5;;
77748;SDS011;66938;52.084;5.228;2023-06-04T02:44:24;5.5;;;2.4;;
77748;SDS011;66938;52.084;5.228;2023-06-04T02:46:00;4.5;;;2.31;;
77748;SDS011;66938;52.084;5.228;2023-06-04T02:49:13;3.9;;;2.4;;
77748;SDS011;66938;52.084;5.228;2023-06-04T02:50:50;3.4;;;2.5;;
77748;SDS011;66938;52.084;5.228;2023-06-04T02:52:26;3.9;;;2.4;;
77748;SDS011;66938;52.084;5.228;2023-06-04T02:55:39;3.7;;;2.5;;
77748;SDS011;66938;52.084;5.228;2023-06-04T02:57:14;4.41;;;2.5;;
77748;SDS011;66938;52.084;5.228;2023-06-04T02:58:51;4.41;;;2.31;;
77748;SDS011;66938;52.084;5.228;2023-06-04T03:00:28;4.61;;;2.4;;
77748;SDS011;66938;52.084;5.228;2023-06-04T03:03:42;4.0;;;2.5;;
77748;SDS011;66938;52.084;5.228;2023-06-04T03:05:18;4.7;;;2.31;;
77748;SDS011;66938;52.084;5.228;2023-06-04T03:10:06;3.3;;;2.4;;
77748;SDS011;66938;52.084;5.228;2023-06-04T03:11:43;4.0;;;2.31;;
77748;SDS011;66938;52.084;5.228;2023-06-04T03:13:19;3.4;;;2.31;;
77748;SDS011;66938;52.084;5.228;2023-06-04T03:16:32;3.3;;;2.31;;
77748;SDS011;66938;52.084;5.228;2023-06-04T03:18:08;3.5;;;2.4;;
77748;SDS011;66938;52.084;5.228;2023-06-04T03:19:44;4.3;;;2.5;;
77748;SDS011;66938;52.084;5.228;2023-06-04T03:21:20;3.2;;;2.5;;
77748;SDS011;66938;52.084;5.228;2023-06-04T03:24:33;3.4;;;2.5;;
77748;SDS011;66938;52.084;5.228;2023-06-04T03:26:10;3.5;;;2.31;;
77748;SDS011;66938;52.084;5.228;2023-06-04T03:27:47;3.6;;;2.4;;
77748;SDS011;66938;52.084;5.228;2023-06-04T03:30:59;4.2;;;2.4;;
77748;SDS011;66938;52.084;5.228;2023-06-04T03:32:36;4.3;;;2.5;;
77748;SDS011;66938;52.084;5.228;2023-06-04T03:34:12;2.9;;;2.1;;
77748;SDS011;66938;52.084;5.228;2023-06-04T03:37:27;4.0;;;2.6;;
77748;SDS011;66938;52.084;5.228;2023-06-04T03:39:03;3.5;;;2.4;;
77748;SDS011;66938;52.084;5.228;2023-06-04T03:40:39;3.5;;;2.4;;
77748;SDS011;66938;52.084;5.228;2023-06-04T03:42:15;3.8;;;2.31;;
77748;SDS011;66938;52.084;5.228;2023-06-04T03:45:27;3.9;;;2.31;;
77748;SDS011;66938;52.084;5.228;2023-06-04T03:47:03;4.0;;;2.31;;
77748;SDS011;66938;52.084;5.228;2023-06-04T03:48:40;3.2;;;2.31;;
77748;SDS011;66938;52.084;5.228;2023-06-04T03:51:55;3.4;;;2.4;;
77748;SDS011;66938;52.084;5.228;2023-06-04T03:53:31;3.0;;;2.21;;
77748;SDS011;66938;52.084;5.228;2023-06-04T03:55:07;4.3;;;2.4;;
77748;SDS011;66938;52.084;5.228;2023-06-04T03:58:20;3.4;;;2.1;;
77748;SDS011;66938;52.084;5.228;2023-06-04T03:59:56;3.4;;;2.31;;
77748;SDS011;66938;52.084;5.228;2023-06-04T04:01:33;4.3;;;2.31;;
77748;SDS011;66938;52.084;5.228;2023-06-04T04:03:09;5.6;;;2.31;;
77748;SDS011;66938;52.084;5.228;2023-06-04T04:06:22;3.0;;;2.21;;
77748;SDS011;66938;52.084;5.228;2023-06-04T04:07:58;3.0;;;2.21;;
77748;SDS011;66938;52.084;5.228;2023-06-04T04:09:34;5.11;;;2.4;;
77748;SDS011;66938;52.084;5.228;2023-06-04T04:12:49;4.41;;;2.6;;
77748;SDS011;66938;52.084;5.228;2023-06-04T04:14:25;3.8;;;2.4;;
77748;SDS011;66938;52.084;5.228;2023-06-04T04:16:01;4.3;;;2.5;;
77748;SDS011;66938;52.084;5.228;2023-06-04T04:19:13;4.41;;;2.5;;
77748;SDS011;66938;52.084;5.228;2023-06-04T04:20:49;4.0;;;2.4;;
77748;SDS011;66938;52.084;5.228;2023-06-04T04:22:25;4.2;;;2.6;;
77748;SDS011;66938;52.084;5.228;2023-06-04T04:24:01;4.61;;;2.4;;
77748;SDS011;66938;52.084;5.228;2023-06-04T04:27:15;3.4;;;2.4;;
77748;SDS011;66938;52.084;5.228;2023-06-04T04:28:51;4.61;;;2.6;;
77748;SDS011;66938;52.084;5.228;2023-06-04T04:30:27;3.3;;;2.31;;
77748;SDS011;66938;52.084;5.228;2023-06-04T04:33:40;5.8;;;2.4;;
77748;SDS011;66938;52.084;5.228;2023-06-04T04:35:16;3.6;;;2.6;;
77748;SDS011;66938;52.084;5.228;2023-06-04T04:36:53;5.0;;;2.7;;
77748;SDS011;66938;52.084;5.228;2023-06-04T04:40:06;4.61;;;2.5;;
77748;SDS011;66938;52.084;5.228;2023-06-04T04:41:43;5.9;;;2.5;;
77748;SDS011;66938;52.084;5.228;2023-06-04T04:43:28;4.1;;;2.5;;
77748;SDS011;66938;52.084;5.228;2023-06-04T04:45:06;4.5;;;2.6;;
77748;SDS011;66938;52.084;5.228;2023-06-04T04:48:19;5.0;;;2.8;;
77748;SDS011;66938;52.084;5.228;2023-06-04T04:49:55;3.9;;;2.4;;
77748;SDS011;66938;52.084;5.228;2023-06-04T04:54:44;5.0;;;3.0;;
77748;SDS011;66938;52.084;5.228;2023-06-04T04:56:21;5.2;;;3.0;;
77748;SDS011;66938;52.084;5.228;2023-06-04T04:57:57;7.0;;;3.2;;
77748;SDS011;66938;52.084;5.228;2023-06-04T05:01:10;4.91;;;3.1;;
77748;SDS011;66938;52.084;5.228;2023-06-04T05:02:47;4.3;;;3.0;;
77748;SDS011;66938;52.084;5.228;2023-06-04T05:04:23;4.5;;;3.0;;
77748;SDS011;66938;52.084;5.228;2023-06-04T05:05:59;6.0;;;3.2;;
77748;SDS011;66938;52.084;5.228;2023-06-04T05:09:11;4.5;;;2.8;;
77748;SDS011;66938;52.084;5.228;2023-06-04T05:10:48;5.3;;;2.8;;
77748;SDS011;66938;52.084;5.228;2023-06-04T05:12:25;5.11;;;2.9;;
77748;SDS011;66938;52.084;5.228;2023-06-04T05:15:38;5.2;;;2.8;;
77748;SDS011;66938;52.084;5.228;2023-06-04T05:17:14;5.9;;;2.7;;
77748;SDS011;66938;52.084;5.228;2023-06-04T05:18:50;5.11;;;2.7;;
77748;SDS011;66938;52.084;5.228;2023-06-04T05:22:02;5.5;;;3.0;;
77748;SDS011;66938;52.084;5.228;2023-06-04T05:23:39;5.7;;;3.1;;
77748;SDS011;66938;52.084;5.228;2023-06-04T05:25:16;5.0;;;2.9;;
77748;SDS011;66938;52.084;5.228;2023-06-04T05:26:53;4.8;;;2.8;;
77748;SDS011;66938;52.084;5.228;2023-06-04T05:30:06;5.4;;;3.0;;
77748;SDS011;66938;52.084;5.228;2023-06-04T05:31:45;4.5;;;2.9;;
77748;SDS011;66938;52.084;5.228;2023-06-04T05:33:21;5.2;;;3.1;;
77748;SDS011;66938;52.084;5.228;2023-06-04T05:36:35;4.3;;;2.8;;
77748;SDS011;66938;52.084;5.228;2023-06-04T05:38:11;4.5;;;3.0;;
77748;SDS011;66938;52.084;5.228;2023-06-04T05:39:47;5.0;;;3.0;;
77748;SDS011;66938;52.084;5.228;2023-06-04T05:42:59;4.8;;;2.9;;
77748;SDS011;66938;52.084;5.228;2023-06-04T05:44:36;4.3;;;2.7;;
77748;SDS011;66938;52.084;5.228;2023-06-04T05:46:13;5.0;;;3.0;;
77748;SDS011;66938;52.084;5.228;2023-06-04T05:47:49;5.11;;;3.3;;
77748;SDS011;66938;52.084;5.228;2023-06-04T05:51:01;5.2;;;3.2;;
77748;SDS011;66938;52.084;5.228;2023-06-04T05:52:37;5.3;;;3.5;;
77748;SDS011;66938;52.084;5.228;2023-06-04T05:54:13;5.8;;;3.2;;
77748;SDS011;66938;52.084;5.228;2023-06-04T05:57:26;7.0;;;3.4;;
77748;SDS011;66938;52.084;5.228;2023-06-04T05:59:02;4.8;;;3.3;;
77748;SDS011;66938;52.084;5.228;2023-06-04T06:00:38;5.3;;;3.3;;
77748;SDS011;66938;52.084;5.228;2023-06-04T06:03:51;5.5;;;3.1;;
77748;SDS011;66938;52.084;5.228;2023-06-04T06:05:27;5.5;;;3.2;;
77748;SDS011;66938;52.084;5.228;2023-06-04T06:07:04;5.9;;;3.5;;
77748;SDS011;66938;52.084;5.228;2023-06-04T06:08:40;7.0;;;3.4;;
77748;SDS011;66938;52.084;5.228;2023-06-04T06:11:52;6.5;;;3.4;;
77748;SDS011;66938;52.084;5.228;2023-06-04T06:13:28;6.8;;;3.5;;
77748;SDS011;66938;52.084;5.228;2023-06-04T06:15:05;6.0;;;3.1;;
77748;SDS011;66938;52.084;5.228;2023-06-04T06:18:19;6.2;;;3.1;;
77748;SDS011;66938;52.084;5.228;2023-06-04T06:19:55;6.0;;;3.1;;
77748;SDS011;66938;52.084;5.228;2023-06-04T06:21:32;5.6;;;3.4;;
77748;SDS011;66938;52.084;5.228;2023-06-04T06:24:44;6.0;;;3.4;;
77748;SDS011;66938;52.084;5.228;2023-06-04T06:26:20;5.4;;;3.2;;
77748;SDS011;66938;52.084;5.228;2023-06-04T06:27:57;5.3;;;3.1;;
77748;SDS011;66938;52.084;5.228;2023-06-04T06:29:33;5.5;;;3.1;;
77748;SDS011;66938;52.084;5.228;2023-06-04T06:32:46;5.9;;;3.0;;
77748;SDS011;66938;52.084;5.228;2023-06-04T06:34:22;12.4;;;3.2;;
77748;SDS011;66938;52.084;5.228;2023-06-04T06:35:59;6.4;;;3.0;;
77748;SDS011;66938;52.084;5.228;2023-06-04T06:39:12;5.5;;;2.9;;
77748;SDS011;66938;52.084;5.228;2023-06-04T06:40:49;5.9;;;2.7;;
77748;SDS011;66938;52.084;5.228;2023-06-04T06:42:26;5.8;;;3.1;;
77748;SDS011;66938;52.084;5.228;2023-06-04T06:45:38;4.8;;;2.8;;
77748;SDS011;66938;52.084;5.228;2023-06-04T06:47:14;5.3;;;2.7;;
77748;SDS011;66938;52.084;5.228;2023-06-04T06:48:51;4.91;;;2.7;;
77748;SDS011;66938;52.084;5.228;2023-06-04T06:50:28;5.3;;;2.4;;
77748;SDS011;66938;52.084;5.228;2023-06-04T06:53:41;5.11;;;2.7;;
77748;SDS011;66938;52.084;5.228;2023-06-04T06:55:17;4.61;;;2.5;;
77748;SDS011;66938;52.084;5.228;2023-06-04T06:56:53;4.7;;;2.6;;
77748;SDS011;66938;52.084;5.228;2023-06-04T07:00:06;5.6;;;2.5;;
77748;SDS011;66938;52.084;5.228;2023-06-04T07:01:44;4.91;;;2.6;;
77748;SDS011;66938;52.084;5.228;2023-06-04T07:03:20;4.8;;;2.6;;
77748;SDS011;66938;52.084;5.228;2023-06-04T07:06:33;4.5;;;2.31;;
77748;SDS011;66938;52.084;5.228;2023-06-04T07:08:09;5.5;;;2.6;;
77748;SDS011;66938;52.084;5.228;2023-06-04T07:09:46;6.2;;;2.31;;
77748;SDS011;66938;52.084;5.228;2023-06-04T07:12:58;4.61;;;2.4;;
77748;SDS011;66938;52.084;5.228;2023-06-04T07:14:35;6.5;;;2.6;;
77748;SDS011;66938;52.084;5.228;2023-06-04T07:16:12;6.1;;;2.4;;
77748;SDS011;66938;52.084;5.228;2023-06-04T07:17:49;5.5;;;2.5;;
77748;SDS011;66938;52.084;5.228;2023-06-04T07:21:01;4.8;;;2.6;;
77748;SDS011;66938;52.084;5.228;2023-06-04T07:22:37;6.6;;;3.0;;
77748;SDS011;66938;52.084;5.228;2023-06-04T07:24:14;5.5;;;2.6;;
77748;SDS011;66938;52.084;5.228;2023-06-04T07:27:27;6.6;;;2.5;;
77748;SDS011;66938;52.084;5.228;2023-06-04T07:29:03;6.7;;;2.7;;
77748;SDS011;66938;52.084;5.228;2023-06-04T07:30:39;5.0;;;2.4;;
77748;SDS011;66938;52.084;5.228;2023-06-04T07:33:51;7.3;;;2.4;;
77748;SDS011;66938;52.084;5.228;2023-06-04T07:35:27;6.5;;;2.31;;
77748;SDS011;66938;52.084;5.228;2023-06-04T07:37:04;9.4;;;2.5;;
77748;SDS011;66938;52.084;5.228;2023-06-04T07:38:41;5.4;;;2.31;;
77748;SDS011;66938;52.084;5.228;2023-06-04T07:41:55;5.7;;;2.4;;
77748;SDS011;66938;52.084;5.228;2023-06-04T07:43:32;6.5;;;2.31;;
77748;SDS011;66938;52.084;5.228;2023-06-04T07:45:10;5.2;;;2.4;;
77748;SDS011;66938;52.084;5.228;2023-06-04T07:48:23;4.3;;;2.21;;
77748;SDS011;66938;52.084;5.228;2023-06-04T07:49:59;5.6;;;2.4;;
77748;SDS011;66938;52.084;5.228;2023-06-04T07:51:36;5.4;;;2.21;;
77748;SDS011;66938;52.084;5.228;2023-06-04T07:53:13;6.3;;;2.31;;
77748;SDS011;66938;52.084;5.228;2023-06-04T07:56:26;7.4;;;2.4;;
77748;SDS011;66938;52.084;5.228;2023-06-04T07:58:02;6.4;;;2.1;;
77748;SDS011;66938;52.084;5.228;2023-06-04T07:59:38;5.9;;;2.0;;
77748;SDS011;66938;52.084;5.228;2023-06-04T08:02:50;5.3;;;1.8;;
77748;SDS011;66938;52.084;5.228;2023-06-04T08:04:27;6.7;;;2.0;;
77748;SDS011;66938;52.084;5.228;2023-06-04T08:06:04;3.9;;;1.9;;
77748;SDS011;66938;52.084;5.228;2023-06-04T08:09:17;4.1;;;1.9;;
77748;SDS011;66938;52.084;5.228;2023-06-04T08:10:54;5.11;;;1.9;;
77748;SDS011;66938;52.084;5.228;2023-06-04T08:12:31;5.8;;;2.0;;
77748;SDS011;66938;52.084;5.228;2023-06-04T08:15:44;3.7;;;1.6;;
77748;SDS011;66938;52.084;5.228;2023-06-04T08:17:20;5.3;;;1.8;;
77748;SDS011;66938;52.084;5.228;2023-06-04T08:18:56;5.0;;;2.21;;
77748;SDS011;66938;52.084;5.228;2023-06-04T08:20:33;3.6;;;1.4;;
77748;SDS011;66938;52.084;5.228;2023-06-04T08:23:45;4.41;;;1.6;;
77748;SDS011;66938;52.084;5.228;2023-06-04T08:25:22;6.4;;;1.9;;
77748;SDS011;66938;52.084;5.228;2023-06-04T08:26:58;4.7;;;1.9;;
77748;SDS011;66938;52.084;5.228;2023-06-04T08:30:10;3.7;;;1.6;;
77748;SDS011;66938;52.084;5.228;2023-06-04T08:31:47;4.41;;;1.7;;
77748;SDS011;66938;52.084;5.228;2023-06-04T08:33:23;5.8;;;1.7;;
77748;SDS011;66938;52.084;5.228;2023-06-04T08:36:36;4.91;;;1.8;;
77748;SDS011;66938;52.084;5.228;2023-06-04T08:38:12;4.41;;;1.7;;
77748;SDS011;66938;52.084;5.228;2023-06-04T08:39:48;4.7;;;1.6;;
77748;SDS011;66938;52.084;5.228;2023-06-04T08:41:26;4.7;;;1.6;;
77748;SDS011;66938;52.084;5.228;2023-06-04T08:44:41;4.5;;;2.1;;
77748;SDS011;66938;52.084;5.228;2023-06-04T08:46:19;3.4;;;1.6;;
77748;SDS011;66938;52.084;5.228;2023-06-04T08:47:57;5.11;;;1.7;;
77748;SDS011;66938;52.084;5.228;2023-06-04T08:51:12;4.41;;;1.7;;
77748;SDS011;66938;52.084;5.228;2023-06-04T08:52:51;4.61;;;1.4;;
77748;SDS011;66938;52.084;5.228;2023-06-04T08:54:29;4.0;;;1.3;;
77748;SDS011;66938;52.084;5.228;2023-06-04T08:56:06;4.61;;;1.5;;
77748;SDS011;66938;52.084;5.228;2023-06-04T08:59:19;3.8;;;1.4;;
77748;SDS011;66938;52.084;5.228;2023-06-04T09:00:55;3.1;;;1.5;;
77748;SDS011;66938;52.084;5.228;2023-06-04T09:02:33;6.5;;;1.8;;
77748;SDS011;66938;52.084;5.228;2023-06-04T09:05:48;4.41;;;1.4;;
77748;SDS011;66938;52.084;5.228;2023-06-04T09:07:25;3.3;;;1.2;;
77748;SDS011;66938;52.084;5.228;2023-06-04T09:09:03;2.9;;;1.4;;
77748;SDS011;66938;52.084;5.228;2023-06-04T09:10:44;3.3;;;1.3;;
77748;SDS011;66938;52.084;5.228;2023-06-04T09:14:03;3.5;;;1.3;;
77748;SDS011;66938;52.084;5.228;2023-06-04T09:15:43;3.1;;;1.4;;
77748;SDS011;66938;52.084;5.228;2023-06-04T09:17:21;2.6;;;1.2;;
77748;SDS011;66938;52.084;5.228;2023-06-04T09:19:00;3.6;;;1.2;;
77748;SDS011;66938;52.084;5.228;2023-06-04T09:22:14;2.6;;;1.11;;
77748;SDS011;66938;52.084;5.228;2023-06-04T09:23:50;2.8;;;1.0;;
77748;SDS011;66938;52.084;5.228;2023-06-04T09:25:27;3.8;;;1.4;;
77748;SDS011;66938;52.084;5.228;2023-06-04T09:28:46;2.5;;;1.3;;
77748;SDS011;66938;52.084;5.228;2023-06-04T09:30:23;2.7;;;1.2;;
77748;SDS011;66938;52.084;5.228;2023-06-04T09:32:00;4.0;;;1.2;;
77748;SDS011;66938;52.084;5.228;2023-06-04T09:35:20;3.2;;;1.2;;
77748;SDS011;66938;52.084;5.228;2023-06-04T09:36:56;3.0;;;1.4;;
77748;SDS011;66938;52.084;5.228;2023-06-04T09:38:34;4.61;;;1.5;;
77748;SDS011;66938;52.084;5.228;2023-06-04T09:40:11;4.2;;;1.2;;
77748;SDS011;66938;52.084;5.228;2023-06-04T09:43:34;4.1;;;1.4;;
77748;SDS011;66938;52.084;5.228;2023-06-04T09:45:10;4.2;;;1.3;;
77748;SDS011;66938;52.084;5.228;2023-06-04T09:46:53;2.6;;;1.2;;
77748;SDS011;66938;52.084;5.228;2023-06-04T09:48:29;2.4;;;1.0;;
77748;SDS011;66938;52.084;5.228;2023-06-04T09:51:46;2.7;;;1.4;;
77748;SDS011;66938;52.084;5.228;2023-06-04T09:53:24;3.9;;;1.4;;
77748;SDS011;66938;52.084;5.228;2023-06-04T09:55:00;3.1;;;1.2;;
77748;SDS011;66938;52.084;5.228;2023-06-04T09:58:16;3.2;;;1.2;;
77748;SDS011;66938;52.084;5.228;2023-06-04T09:59:52;3.2;;;1.2;;
77748;SDS011;66938;52.084;5.228;2023-06-04T10:01:30;3.5;;;1.11;;
77748;SDS011;66938;52.084;5.228;2023-06-04T10:03:07;3.2;;;1.2;;
77748;SDS011;66938;52.084;5.228;2023-06-04T10:06:32;2.5;;;1.11;;
77748;SDS011;66938;52.084;5.228;2023-06-04T10:08:11;2.6;;;1.11;;
77748;SDS011;66938;52.084;5.228;2023-06-04T10:09:53;4.61;;;1.5;;
77748;SDS011;66938;52.084;5.228;2023-06-04T10:11:31;2.0;;;1.0;;
77748;SDS011;66938;52.084;5.228;2023-06-04T10:14:54;2.9;;;1.3;;
77748;SDS011;66938;52.084;5.228;2023-06-04T10:16:36;3.7;;;1.3;;
77748;SDS011;66938;52.084;5.228;2023-06-04T10:18:14;3.7;;;1.11;;
77748;SDS011;66938;52.084;5.228;2023-06-04T10:19:51;3.4;;;1.2;;
77748;SDS011;66938;52.084;5.228;2023-06-04T10:23:08;7.9;;;1.4;;
77748;SDS011;66938;52.084;5.228;2023-06-04T10:24:45;2.1;;;1.0;;
77748;SDS011;66938;52.084;5.228;2023-06-04T10:26:22;3.0;;;1.11;;
77748;SDS011;66938;52.084;5.228;2023-06-04T10:29:37;2.21;;;0.9;;
77748;SDS011;66938;52.084;5.228;2023-06-04T10:31:13;3.2;;;1.0;;
77748;SDS011;66938;52.084;5.228;2023-06-04T10:32:51;3.2;;;1.11;;
77748;SDS011;66938;52.084;5.228;2023-06-04T10:34:29;3.6;;;1.2;;
77748;SDS011;66938;52.084;5.228;2023-06-04T10:38:04;3.3;;;1.3;;
77748;SDS011;66938;52.084;5.228;2023-06-04T10:39:49;2.1;;;1.11;;
77748;SDS011;66938;52.084;5.228;2023-06-04T10:41:27;3.9;;;1.3;;
77748;SDS011;66938;52.084;5.228;2023-06-04T10:43:04;4.0;;;1.11;;
77748;SDS011;66938;52.084;5.228;2023-06-04T10:46:23;7.8;;;1.6;;
77748;SDS011;66938;52.084;5.228;2023-06-04T10:47:59;4.3;;;1.3;;
77748;SDS011;66938;52.084;5.228;2023-06-04T10:49:36;2.6;;;1.11;;
77748;SDS011;66938;52.084;5.228;2023-06-04T10:51:12;3.7;;;1.3;;
77748;SDS011;66938;52.084;5.228;2023-06-04T10:54:29;2.8;;;1.4;;
77748;SDS011;66938;52.084;5.228;2023-06-04T10:56:05;3.2;;;1.3;;
77748;SDS011;66938;52.084;5.228;2023-06-04T10:57:50;2.6;;;1.4;;
77748;SDS011;66938;52.084;5.228;2023-06-04T10:59:27;4.1;;;1.3;;
77748;SDS011;66938;52.084;5.228;2023-06-04T11:02:49;2.7;;;1.4;;
77748;SDS011;66938;52.084;5.228;2023-06-04T11:04:27;3.8;;;1.3;;
77748;SDS011;66938;52.084;5.228;2023-06-04T11:06:13;6.7;;;1.5;;
77748;SDS011;66938;52.084;5.228;2023-06-04T11:07:51;4.8;;;1.3;;
77748;SDS011;66938;52.084;5.228;2023-06-04T11:11:10;2.4;;;1.4;;
77748;SDS011;66938;52.084;5.228;2023-06-04T11:12:47;2.7;;;1.2;;
77748;SDS011;66938;52.084;5.228;2023-06-04T11:14:25;2.7;;;1.11;;
77748;SDS011;66938;52.084;5.228;2023-06-04T11:17:51;3.4;;;1.3;;
77748;SDS011;66938;52.084;5.228;2023-06-04T11:19:34;3.6;;;1.2;;
77748;SDS011;66938;52.084;5.228;2023-06-04T11:21:11;3.6;;;1.4;;
77748;SDS011;66938;52.084;5.228;2023-06-04T11:22:51;3.6;;;1.4;;
77748;SDS011;66938;52.084;5.228;2023-06-04T11:24:30;4.2;;;1.4;;
77748;SDS011;66938;52.084;5.228;2023-06-04T11:27:43;3.6;;;1.2;;
77748;SDS011;66938;52.084;5.228;2023-06-04T11:29:19;3.1;;;1.4;;
77748;SDS011;66938;52.084;5.228;2023-06-04T11:30:58;5.0;;;1.3;;
77748;SDS011;66938;52.084;5.228;2023-06-04T11:34:21;3.9;;;1.5;;
77748;SDS011;66938;52.084;5.228;2023-06-04T11:35:59;2.9;;;1.6;;
77748;SDS011;66938;52.084;5.228;2023-06-04T11:37:36;6.6;;;1.8;;
77748;SDS011;66938;52.084;5.228;2023-06-04T11:39:12;8.2;;;1.7;;
77748;SDS011;66938;52.084;5.228;2023-06-04T11:42:39;3.8;;;1.5;;
77748;SDS011;66938;52.084;5.228;2023-06-04T11:44:18;4.5;;;1.5;;
77748;SDS011;66938;52.084;5.228;2023-06-04T11:45:56;4.1;;;1.3;;
77748;SDS011;66938;52.084;5.228;2023-06-04T11:47:32;4.2;;;1.5;;
77748;SDS011;66938;52.084;5.228;2023-06-04T11:50:48;4.0;;;1.4;;
77748;SDS011;66938;52.084;5.228;2023-06-04T11:52:24;5.0;;;1.4;;
77748;SDS011;66938;52.084;5.228;2023-06-04T11:54:01;3.9;;;1.3;;
77748;SDS011;66938;52.084;5.228;2023-06-04T11:57:14;14.3;;;2.31;;
77748;SDS011;66938;52.084;5.228;2023-06-04T11:58:52;3.9;;;1.6;;
77748;SDS011;66938;52.084;5.228;2023-06-04T12:00:30;3.7;;;1.4;;
77748;SDS011;66938;52.084;5.228;2023-06-04T12:03:44;3.3;;;1.4;;
77748;SDS011;66938;52.084;5.228;2023-06-04T12:05:22;2.7;;;1.2;;
77748;SDS011;66938;52.084;5.228;2023-06-04T12:07:05;7.2;;;1.4;;
77748;SDS011;66938;52.084;5.228;2023-06-04T12:08:45;7.2;;;1.4;;
77748;SDS011;66938;52.084;5.228;2023-06-04T12:11:59;4.1;;;1.5;;
77748;SDS011;66938;52.084;5.228;2023-06-04T12:13:36;2.7;;;1.3;;
77748;SDS011;66938;52.084;5.228;2023-06-04T12:15:18;3.5;;;1.4;;
77748;SDS011;66938;52.084;5.228;2023-06-04T12:16:56;3.8;;;1.3;;
77748;SDS011;66938;52.084;5.228;2023-06-04T12:20:09;3.6;;;1.5;;
77748;SDS011;66938;52.084;5.228;2023-06-04T12:21:46;3.7;;;1.3;;
77748;SDS011;66938;52.084;5.228;2023-06-04T12:23:22;4.7;;;1.4;;
77748;SDS011;66938;52.084;5.228;2023-06-04T12:26:36;3.5;;;1.5;;
77748;SDS011;66938;52.084;5.228;2023-06-04T12:28:16;8.1;;;1.5;;
77748;SDS011;66938;52.084;5.228;2023-06-04T12:29:54;3.0;;;1.4;;
77748;SDS011;66938;52.084;5.228;2023-06-04T12:31:33;6.0;;;1.5;;
77748;SDS011;66938;52.084;5.228;2023-06-04T12:34:48;3.4;;;1.4;;
77748;SDS011;66938;52.084;5.228;2023-06-04T12:36:24;5.5;;;1.6;;
77748;SDS011;66938;52.084;5.228;2023-06-04T12:38:02;5.4;;;1.4;;
77748;SDS011;66938;52.084;5.228;2023-06-04T12:41:15;7.2;;;1.3;;
77748;SDS011;66938;52.084;5.228;2023-06-04T12:42:51;5.5;;;1.4;;
77748;SDS011;66938;52.084;5.228;2023-06-04T12:44:27;3.9;;;1.5;;
77748;SDS011;66938;52.084;5.228;2023-06-04T12:46:05;7.1;;;1.5;;
77748;SDS011;66938;52.084;5.228;2023-06-04T12:49:17;7.1;;;1.5;;
77748;SDS011;66938;52.084;5.228;2023-06-04T12:50:53;4.8;;;1.6;;
77748;SDS011;66938;52.084;5.228;2023-06-04T12:52:29;4.7;;;1.8;;
77748;SDS011;66938;52.084;5.228;2023-06-04T12:55:43;4.0;;;1.6;;
77748;SDS011;66938;52.084;5.228;2023-06-04T12:57:19;5.2;;;1.6;;
77748;SDS011;66938;52.084;5.228;2023-06-04T12:58:56;5.7;;;1.7;;
77748;SDS011;66938;52.084;5.228;2023-06-04T13:02:09;4.41;;;1.7;;
77748;SDS011;66938;52.084;5.228;2023-06-04T13:03:45;8.31;;;1.8;;